Home > Products > Valid Products > TAF

000
FTUS42 KCHS 201700
TAFSAV
TAF
KSAV 201724Z 2018/2118 15007KT P6SM BKN045
     FM210000 VRB03KT P6SM SCT015 BKN040
     FM211100 31005KT P6SM SKC=



000
FTUS42 KCHS 201700
TAFCHS
TAF
KCHS 201724Z 2018/2118 17009KT P6SM BKN045
     FM210000 VRB03KT P6SM SCT020 BKN050
     FM211200 31007KT P6SM SKC=



000
FTUS42 KCHS 201100
TAFCHS
TAF
KCHS 201126Z 2012/2112 VRB03KT P6SM SCT045
     FM202300 VRB03KT P6SM SCT050=



000
FTUS42 KCHS 201100
TAFSAV
TAF
KSAV 201126Z 2012/2112 VRB03KT P6SM SCT045
     FM201700 14007KT P6SM BKN045
     FM202300 VRB03KT P6SM SCT050=



000
FTUS42 KCHS 200500
TAFCHS
TAF
KCHS 200528Z 2006/2106 00000KT P6SM SCT250
     FM201200 VRB03KT P6SM SCT025
     FM201800 16007KT P6SM BKN040
     FM202300 VRB03KT P6SM SCT050=



000
FTUS42 KCHS 200500
TAFSAV
TAF
KSAV 200528Z 2006/2106 00000KT P6SM FEW020
     FM200900 VRB03KT P6SM SCT030
     FM201700 14007KT P6SM BKN045
     FM202300 VRB03KT P6SM SCT050=



000
FTUS42 KCHS 192300
TAFSAV
TAF
KSAV 192325Z 2000/2024 VRB03KT P6SM SCT250
     FM200900 VRB03KT P6SM SCT030
     FM201700 14007KT P6SM SCT030 BKN045=



000
FTUS42 KCHS 192300
TAFCHS
TAF
KCHS 192325Z 2000/2024 VRB03KT P6SM SCT250
     FM201800 16007KT P6SM SCT040=



000
FTUS42 KCHS 192300
TAFSAV
TAF
KSAV 192325Z 2000/2024 VRB03KT P6SM SCT250
     FM200900 VRB03KT P6SM SCT030
     FM201700 14007KT P6SM SCT030 BKN045=



000
FTUS42 KCHS 192300
TAFCHS
TAF
KCHS 192325Z 2000/2024 VRB03KT P6SM SCT250
     FM201800 16007KT P6SM SCT040=



000
FTUS42 KCHS 192100 AAA
TAFCHS
TAF AMD
KCHS 192134Z 1922/2018 VRB03KT P6SM SCT250
     FM201600 15006KT P6SM SCT040=



000
FTUS42 KCHS 192100 AAA
TAFSAV
TAF AMD
KSAV 192106Z 1921/2018 VRB03KT P6SM SCT250
     FM200900 VRB03KT P6SM SCT030=



000
FTUS42 KCHS 191700
TAFCHS
TAF
KCHS 191720Z 1918/2018 03007KT P6SM SCT250
     FM200000 07003KT P6SM SKC=



000
FTUS42 KCHS 191700
TAFSAV
TAF
KSAV 191720Z 1918/2018 06006KT P6SM SCT250
     FM200000 08002KT P6SM FEW040=



000
FTUS42 KCHS 191500 AAA
TAFSAV
TAF AMD
KSAV 191508Z 1915/2012 03011G15KT P6SM SCT250
     FM191700 06006KT P6SM SKC=



000
FTUS42 KCHS 191500 AAA
TAFCHS
TAF AMD
KCHS 191504Z 1915/2012 01011KT P6SM SCT250
     FM192100 04005KT P6SM SKC=



000
FTUS42 KCHS 191100
TAFCHS
TAF
KCHS 191129Z 1912/2012 36010G15KT P6SM SCT250
     FM192100 01006KT P6SM SKC=



000
FTUS42 KCHS 191100
TAFSAV
TAF
KSAV 191129Z 1912/2012 01010G15KT P6SM SCT250
     FM192100 02006KT P6SM SKC=



000
FTUS42 KCHS 190500
TAFSAV
TAF
KSAV 190520Z 1906/2006 32008KT P6SM SCT250
     FM190800 35010KT P6SM SCT250
     FM191200 01010G15KT P6SM FEW250
     FM192100 02006KT P6SM SKC=



000
FTUS42 KCHS 190500
TAFCHS
TAF
KCHS 190520Z 1906/2006 35010KT P6SM SCT250
     FM191200 36010G15KT P6SM SKC
     FM192100 01006KT P6SM SKC=



000
FTUS42 KCHS 182300
TAFCHS
TAF
KCHS 182330Z 1900/1924 25005KT P6SM SCT200
     FM190500 34009KT P6SM FEW050
     FM191200 02010G15KT P6SM SKC=



000
FTUS42 KCHS 182300
TAFSAV
TAF
KSAV 182330Z 1900/1924 27004KT P6SM FEW200
     FM190600 33007KT P6SM FEW250
     FM191200 02009G14KT P6SM SKC=



000
FTUS42 KCHS 181700
TAFCHS
TAF
KCHS 181733Z 1818/1918 27010KT P6SM FEW250
     FM190500 35010KT P6SM FEW250=



000
FTUS42 KCHS 181700
TAFSAV
TAF
KSAV 181733Z 1818/1918 29009KT P6SM FEW250
     FM190800 35010KT P6SM SKC=



000
FTUS42 KCHS 181100
TAFSAV
TAF
KSAV 181123Z 1812/1912 23004KT P6SM SKC
     FM181400 27009KT P6SM FEW250
     FM190800 34010KT P6SM FEW250=



000
FTUS42 KCHS 181100
TAFCHS
TAF
KCHS 181123Z 1812/1912 24004KT P6SM SKC
     FM181400 27009KT P6SM FEW250
     FM190300 36010KT P6SM FEW250=



000
FTUS42 KCHS 181100
TAFCHS
TAF
KCHS 181123Z 1812/1912 24004KT P6SM SKC
     FM181400 27009KT P6SM FEW250
     FM190300 36010KT P6SM FEW250=



000
FTUS42 KCHS 181100
TAFSAV
TAF
KSAV 181123Z 1812/1912 23004KT P6SM SKC
     FM181400 27009KT P6SM FEW250
     FM190800 34010KT P6SM FEW250=



000
FTUS42 KCHS 180500
TAFCHS
TAF
KCHS 180520Z 1806/1906 24004KT P6SM SKC
     FM181400 27009KT P6SM FEW250=



000
FTUS42 KCHS 180500
TAFSAV
TAF
KSAV 180520Z 1806/1906 23004KT P6SM SKC
     FM181400 27009KT P6SM FEW250=



000
FTUS42 KCHS 172300
TAFSAV
TAF
KSAV 172320Z 1800/1824 23004KT P6SM SKC
     FM181400 27009KT P6SM SCT250=



000
FTUS42 KCHS 172300
TAFCHS
TAF
KCHS 172320Z 1800/1824 24004KT P6SM SKC
     FM181400 27009KT P6SM SCT250=



000
FTUS42 KCHS 172300
TAFSAV
TAF
KSAV 172320Z 1800/1824 23004KT P6SM SKC
     FM181400 27009KT P6SM SCT250=



000
FTUS42 KCHS 172300
TAFCHS
TAF
KCHS 172320Z 1800/1824 24004KT P6SM SKC
     FM181400 27009KT P6SM SCT250=



    US Dept of Commerce
    National Oceanic and Atmospheric Administration
    National Weather Service
    1325 East West Highway
    Silver Spring, MD 20910
    Page Author: NWS Internet Services Team
Disclaimer
Information Quality
Credits
Glossary
Privacy Policy
Freedom of Information Act (FOIA)
About Us
Career Opportunities